Suehiro Maru No.8 — JK5423 — position and weather

sailwx.info

Track history (hours):
 
Tides and Currents Weather Stations Pressure Air Temp Water Temp Dewpoint Dewpoint Depression Visibility Wind Speed Wind Dir Waves Ship Positions

Suehiro Maru No.8

Last reported at 2017-Apr-25 11:13 UTC. Time now 2017-Apr-27 09:09 UTC.
Position N 34°51' E 139°11'.

Length 88 m; draft 5.2 m.

Type: Cargo ship. MMSI: 431400446.

Date/timePositionNaut miles runAvg speedWind from/ knotsBaromVisibWave heightAir tempDewpointWater temp
2017-Apr-25 11:13N 34°51' E 139°11'1511.5
2017-Apr-25 09:57N 34°59' E 139°26'611.1
2017-Apr-25 09:26N 35°02' E 139°31'511.5
2017-Apr-25 09:00N 35°05' E 139°36'611.7
2017-Apr-25 08:30N 35°09' E 139°42'611.5
2017-Apr-25 08:00N 35°13' E 139°46'611.8
2017-Apr-25 07:30N 35°19' E 139°44'611.2
2017-Apr-25 07:00N 35°24' E 139°43'611.3
2017-Apr-25 06:30N 35°28' E 139°48'3 5.4
2017-Apr-25 06:00N 35°30' E 139°50'0 0.0
2017-Apr-25 05:30N 35°30' E 139°50'0 0.4
2017-Apr-25 05:00N 35°30' E 139°50'611.0
2017-Apr-25 04:30N 35°36' E 139°50'2 3.6
2017-Apr-25 04:00N 35°37' E 139°49'0 0.0
2017-Apr-25 03:30N 35°37' E 139°49'0 0.0
2017-Apr-25 03:00N 35°37' E 139°49'0 0.0
2017-Apr-25 02:30N 35°37' E 139°49'0 0.0
2017-Apr-25 02:00N 35°37' E 139°49'0 0.0
2017-Apr-25 01:30N 35°37' E 139°49'0 0.0
2017-Apr-25 01:00N 35°37' E 139°49'0 0.0
2017-Apr-25 00:30N 35°37' E 139°49'0 0.0
2017-Apr-25 00:00N 35°37' E 139°49'0 0.0
2017-Apr-24 23:30N 35°37' E 139°49'0 0.0
2017-Apr-24 23:00N 35°37' E 139°49'0 0.0
2017-Apr-24 22:30N 35°37' E 139°49'0 0.0
2017-Apr-24 22:00N 35°37' E 139°49'2 3.7
2017-Apr-24 21:30N 35°36' E 139°50'713.1
2017-Apr-24 21:00N 35°30' E 139°52'713.3
2017-Apr-24 20:30N 35°25' E 139°47'612.9
2017-Apr-24 20:00N 35°18' E 139°44'612.2
2017-Apr-24 19:30N 35°13' E 139°47'713.4
2017-Apr-24 19:00N 35°06' E 139°44'713.7
2017-Apr-24 18:30N 35°01' E 139°38'714.3
2017-Apr-24 18:00N 34°57' E 139°31'227 5.1
2017-Apr-22 21:12N 34°02' E 135°03'312.4
2017-Apr-22 20:59N 34°05' E 135°03'612.4
2017-Apr-22 20:30N 34°10' E 135°05'4 9.0
2017-Apr-22 20:01N 34°14' E 135°07'0 0.5
2017-Apr-22 19:31N 34°15' E 135°07'0 0.0
2017-Apr-22 19:01N 34°15' E 135°07'0 0.0
2017-Apr-22 18:31N 34°15' E 135°07'0 0.0
2017-Apr-22 18:01N 34°15' E 135°07'0 0.0
2017-Apr-22 17:31N 34°15' E 135°07'0 0.0
2017-Apr-22 17:01N 34°15' E 135°07'0 0.0
2017-Apr-22 16:30N 34°15' E 135°07'0 0.0
2017-Apr-22 16:00N 34°15' E 135°07'0 0.0
2017-Apr-22 15:30N 34°15' E 135°07'0 0.0
2017-Apr-22 15:00N 34°15' E 135°07'0 0.0
2017-Apr-22 14:30N 34°15' E 135°07'0 0.0
2017-Apr-22 13:30N 34°15' E 135°07'0 0.0
2017-Apr-22 13:00N 34°15' E 135°07'0 0.0
2017-Apr-22 12:31N 34°15' E 135°07'0 0.0
2017-Apr-22 12:00N 34°15' E 135°07'0 0.0
2017-Apr-22 11:30N 34°15' E 135°07'0 0.0
2017-Apr-22 11:00N 34°15' E 135°07'0 0.0
2017-Apr-22 10:30N 34°15' E 135°07'0 0.0
2017-Apr-22 10:00N 34°15' E 135°07'0 0.0
2017-Apr-22 09:30N 34°15' E 135°07'0 0.0
2017-Apr-22 09:00N 34°15' E 135°07'0 0.0
2017-Apr-22 08:30N 34°15' E 135°07'0 0.0
2017-Apr-22 08:01N 34°15' E 135°07'2 4.5
2017-Apr-22 07:30N 34°15' E 135°04'5 8.9
2017-Apr-22 07:00N 34°19' E 135°04'612.0
2017-Apr-22 06:29N 34°25' E 135°05'612.5
2017-Apr-22 06:00N 34°31' E 135°04'612.2
2017-Apr-22 05:30N 34°37' E 135°01'713.7
2017-Apr-22 05:00N 34°37' E 134°53'  
Track history (hours):
 
Tides and Currents Weather Stations Pressure Air Temp Water Temp Dewpoint Dewpoint Depression Visibility Wind Speed Wind Dir Waves Ship Positions

Suehiro Maru No.8

Last reported at 2017-Apr-25 11:13 UTC. Time now 2017-Apr-27 09:09 UTC.
Position N 34°51' E 139°11'.

Length 88 m; draft 5.2 m.

Type: Cargo ship. MMSI: 431400446.

Date/timePositionNaut miles runAvg speedWind from/ knotsBaromVisibWave heightAir tempDewpointWater temp
2017-Apr-25 11:13N 34°51' E 139°11'1511.5
2017-Apr-25 09:57N 34°59' E 139°26'611.1
2017-Apr-25 09:26N 35°02' E 139°31'511.5
2017-Apr-25 09:00N 35°05' E 139°36'611.7
2017-Apr-25 08:30N 35°09' E 139°42'611.5
2017-Apr-25 08:00N 35°13' E 139°46'611.8
2017-Apr-25 07:30N 35°19' E 139°44'611.2
2017-Apr-25 07:00N 35°24' E 139°43'611.3
2017-Apr-25 06:30N 35°28' E 139°48'3 5.4
2017-Apr-25 06:00N 35°30' E 139°50'0 0.0
2017-Apr-25 05:30N 35°30' E 139°50'0 0.4
2017-Apr-25 05:00N 35°30' E 139°50'611.0
2017-Apr-25 04:30N 35°36' E 139°50'2 3.6
2017-Apr-25 04:00N 35°37' E 139°49'0 0.0
2017-Apr-25 03:30N 35°37' E 139°49'0 0.0
2017-Apr-25 03:00N 35°37' E 139°49'0 0.0
2017-Apr-25 02:30N 35°37' E 139°49'0 0.0
2017-Apr-25 02:00N 35°37' E 139°49'0 0.0
2017-Apr-25 01:30N 35°37' E 139°49'0 0.0
2017-Apr-25 01:00N 35°37' E 139°49'0 0.0
2017-Apr-25 00:30N 35°37' E 139°49'0 0.0
2017-Apr-25 00:00N 35°37' E 139°49'0 0.0
2017-Apr-24 23:30N 35°37' E 139°49'0 0.0
2017-Apr-24 23:00N 35°37' E 139°49'0 0.0
2017-Apr-24 22:30N 35°37' E 139°49'0 0.0
2017-Apr-24 22:00N 35°37' E 139°49'2 3.7
2017-Apr-24 21:30N 35°36' E 139°50'713.1
2017-Apr-24 21:00N 35°30' E 139°52'713.3
2017-Apr-24 20:30N 35°25' E 139°47'612.9
2017-Apr-24 20:00N 35°18' E 139°44'612.2
2017-Apr-24 19:30N 35°13' E 139°47'713.4
2017-Apr-24 19:00N 35°06' E 139°44'713.7
2017-Apr-24 18:30N 35°01' E 139°38'714.3
2017-Apr-24 18:00N 34°57' E 139°31'227 5.1
2017-Apr-22 21:12N 34°02' E 135°03'312.4
2017-Apr-22 20:59N 34°05' E 135°03'612.4
2017-Apr-22 20:30N 34°10' E 135°05'4 9.0
2017-Apr-22 20:01N 34°14' E 135°07'0 0.5
2017-Apr-22 19:31N 34°15' E 135°07'0 0.0
2017-Apr-22 19:01N 34°15' E 135°07'0 0.0
2017-Apr-22 18:31N 34°15' E 135°07'0 0.0
2017-Apr-22 18:01N 34°15' E 135°07'0 0.0
2017-Apr-22 17:31N 34°15' E 135°07'0 0.0
2017-Apr-22 17:01N 34°15' E 135°07'0 0.0
2017-Apr-22 16:30N 34°15' E 135°07'0 0.0
2017-Apr-22 16:00N 34°15' E 135°07'0 0.0
2017-Apr-22 15:30N 34°15' E 135°07'0 0.0
2017-Apr-22 15:00N 34°15' E 135°07'0 0.0
2017-Apr-22 14:30N 34°15' E 135°07'0 0.0
2017-Apr-22 13:30N 34°15' E 135°07'0 0.0
2017-Apr-22 13:00N 34°15' E 135°07'0 0.0
2017-Apr-22 12:31N 34°15' E 135°07'0 0.0
2017-Apr-22 12:00N 34°15' E 135°07'0 0.0
2017-Apr-22 11:30N 34°15' E 135°07'0 0.0
2017-Apr-22 11:00N 34°15' E 135°07'0 0.0
2017-Apr-22 10:30N 34°15' E 135°07'0 0.0
2017-Apr-22 10:00N 34°15' E 135°07'0 0.0
2017-Apr-22 09:30N 34°15' E 135°07'0 0.0
2017-Apr-22 09:00N 34°15' E 135°07'0 0.0
2017-Apr-22 08:30N 34°15' E 135°07'0 0.0
2017-Apr-22 08:01N 34°15' E 135°07'2 4.5
2017-Apr-22 07:30N 34°15' E 135°04'5 8.9
2017-Apr-22 07:00N 34°19' E 135°04'612.0
2017-Apr-22 06:29N 34°25' E 135°05'612.5
2017-Apr-22 06:00N 34°31' E 135°04'612.2
2017-Apr-22 05:30N 34°37' E 135°01'713.7
2017-Apr-22 05:00N 34°37' E 134°53'  

Dump ship's entire track history